| time (UTC) | temp C | wind direction | speed KPH | gust KPH | rain 1hr cm | rain 24hr cm | rain mn cm | humidity % | barometer mb |
| 20260507084518 | 9 | 321 | 11.3 | 17.7 | 0.00 | 0.43 | 0.43 | 82 | 1006.6 |
| 20260507083059 | 10 | 331 | 8.0 | 17.7 | 0.00 | 0.43 | 0.43 | 82 | 1006.2 |
| 20260507081557 | 10 | 311 | 6.4 | 19.3 | 0.00 | 0.43 | 0.43 | 83 | 1006.3 |
| 20260507080100 | 10 | 300 | 11.3 | 20.9 | 0.00 | 0.43 | 0.43 | 80 | 1006.5 |
| 20260507074606 | 10 | 307 | 11.3 | 25.7 | 0.00 | 0.43 | 0.43 | 79 | 1006.5 |
| 20260507073050 | 10 | 306 | 11.3 | 20.9 | 0.00 | 0.43 | 0.43 | 80 | 1006.2 |
| 20260507071552 | 11 | 318 | 14.5 | 24.1 | 0.00 | 0.43 | 0.43 | 81 | 1006.1 |
| 20260507070103 | 11 | 313 | 8.0 | 14.5 | 0.00 | 0.43 | 0.43 | 84 | 1005.9 |
| 20260507064544 | 11 | 302 | 3.2 | 11.3 | 0.00 | 0.43 | 0.43 | 85 | 1005.9 |
| 20260507063036 | 11 | 338 | 8.0 | 20.9 | 0.00 | 0.43 | 0.43 | 84 | 1005.6 |
| 20260507061527 | 11 | 275 | 8.0 | 17.7 | 0.00 | 0.43 | 0.43 | 84 | 1005.8 |
| 20260507060005 | 11 | 282 | 4.8 | 14.5 | 0.00 | 0.43 | 0.43 | 85 | 1005.8 |
| 20260507054503 | 11 | 309 | 4.8 | 14.5 | 0.00 | 0.43 | 0.43 | 87 | 1006.0 |
| 20260507053045 | 11 | 325 | 6.4 | 17.7 | 0.00 | 0.43 | 0.43 | 86 | 1005.9 |
| 20260507051544 | 12 | 313 | 8.0 | 19.3 | 0.00 | 0.43 | 0.43 | 85 | 1006.0 |
| 20260507050029 | 12 | 299 | 6.4 | 14.5 | 0.00 | 0.43 | 0.43 | 87 | 1006.1 |
| 20260507044521 | 12 | 298 | 9.7 | 17.7 | 0.00 | 0.43 | 0.43 | 87 | 1005.7 |
| 20260507043002 | 12 | 338 | 11.3 | 24.1 | 0.00 | 0.43 | 0.43 | 86 | 1005.7 |
| 20260507041558 | 13 | 334 | 11.3 | 22.5 | 0.00 | 0.43 | 0.43 | 86 | 1005.9 |
| 20260507040036 | 15 | 348 | 12.9 | 24.1 | 0.00 | 0.43 | 0.43 | 90 | 1005.7 |
| 20260507034538 | 15 | 261 | 3.2 | 22.5 | 0.00 | 0.43 | 0.43 | 92 | 1005.2 |
| 20260507033017 | 15 | 288 | 4.8 | 17.7 | 0.00 | 0.43 | 0.43 | 93 | 1004.9 |
| 20260507031518 | 15 | 261 | 6.4 | 16.1 | 0.00 | 0.43 | 0.43 | 92 | 1004.7 |
| 20260507030058 | 15 | 241 | 4.8 | 16.1 | 0.00 | 0.43 | 0.43 | 92 | 1004.6 |
| 20260507024557 | 15 | 200 | 3.2 | 12.9 | 0.00 | 0.43 | 0.43 | 92 | 1004.7 |
| 20260507023037 | 15 | 236 | 8.0 | 14.5 | 0.00 | 0.43 | 0.43 | 92 | 1004.8 |
| 20260507021538 | 15 | 207 | 6.4 | 16.1 | 0.00 | 0.43 | 0.43 | 92 | 1004.6 |
| 20260507020029 | 15 | 258 | 4.8 | 16.1 | 0.00 | 0.43 | 0.43 | 92 | 1004.8 |
| 20260507014519 | 15 | 224 | 6.4 | 19.3 | 0.03 | 0.43 | 0.43 | 92 | 1004.9 |
| 20260507013119 | 15 | 225 | 8.0 | 17.7 | 0.03 | 0.43 | 0.43 | 92 | 1005.0 |
| 20260507011609 | 15 | 192 | 4.8 | 12.9 | 0.03 | 0.43 | 0.43 | 92 | 1005.1 |
| 20260507010052 | 15 | 208 | 6.4 | 16.1 | 0.03 | 0.43 | 0.43 | 92 | 1005.1 |
| 20260507004539 | 15 | 251 | 6.4 | 16.1 | 0.03 | 0.41 | 0.41 | 92 | 1005.1 |
| 20260507003028 | 15 | 218 | 6.4 | 19.3 | 0.13 | 0.41 | 0.41 | 92 | 1005.0 |
| 20260507001530 | 15 | 219 | 4.8 | 17.7 | 0.20 | 0.41 | 0.41 | 93 | 1004.9 |
| 20260507000024 | 15 | 189 | 4.8 | 12.9 | 0.25 | 0.41 | 0.41 | 92 | 1004.8 |
| 20260506234530 | 15 | 182 | 6.4 | 14.5 | 0.25 | 0.38 | 0.38 | 92 | 1004.7 |
| 20260506233022 | 15 | 194 | 6.4 | 14.5 | 0.18 | 0.28 | 0.28 | 92 | 1004.8 |
| 20260506231521 | 15 | 217 | 6.4 | 14.5 | 0.10 | 0.20 | 0.20 | 91 | 1005.1 |
| 20260506230021 | 15 | 188 | 4.8 | 19.3 | 0.05 | 0.15 | 0.15 | 91 | 1005.1 |
| 20260506224515 | 16 | 184 | 11.3 | 20.9 | 0.05 | 0.13 | 0.13 | 90 | 1005.2 |
| 20260506223057 | 16 | 241 | 6.4 | 17.7 | 0.03 | 0.10 | 0.10 | 90 | 1005.2 |
| 20260506221559 | 16 | 200 | 9.7 | 24.1 | 0.05 | 0.10 | 0.10 | 90 | 1005.2 |
| 20260506220036 | 16 | 164 | 4.8 | 25.7 | 0.08 | 0.10 | 0.10 | 90 | 1005.4 |
| 20260506214534 | 16 | 177 | 8.0 | 19.3 | 0.08 | 0.08 | 0.08 | 90 | 1005.7 |
| 20260506213014 | 16 | 236 | 9.7 | 14.5 | 0.05 | 0.05 | 0.05 | 89 | 1005.9 |
| 20260506211521 | 16 | 191 | 4.8 | 11.3 | 0.05 | 0.05 | 0.05 | 89 | 1006.1 |
| 20260506210055 | 16 | 177 | 6.4 | 14.5 | 0.03 | 0.03 | 0.03 | 89 | 1006.2 |
| 20260506204552 | 16 | 202 | 4.8 | 14.5 | 0.00 | 0.00 | 0.00 | 87 | 1006.1 |
| 20260506203039 | 17 | 169 | 4.8 | 11.3 | 0.00 | 0.00 | 0.00 | 85 | 1006.1 |
| 20260506201536 | 17 | 222 | 4.8 | 16.1 | 0.00 | 0.00 | 0.00 | 82 | 1006.0 |
| 20260506200040 | 17 | 166 | 8.0 | 12.9 | 0.00 | 0.00 | 0.00 | 81 | 1005.9 |
| 20260506194529 | 18 | 202 | 6.4 | 14.5 | 0.00 | 0.00 | 0.00 | 78 | 1006.0 |
| 20260506193027 | 20 | 167 | 8.0 | 24.1 | 0.00 | 0.00 | 0.00 | 71 | 1006.2 |
| 20260506191522 | 20 | 222 | 11.3 | 24.1 | 0.00 | 0.00 | 0.00 | 70 | 1006.0 |
| 20260506190021 | 20 | 196 | 4.8 | 12.9 | 0.00 | 0.00 | 0.00 | 70 | 1006.2 |
| 20260506184521 | 20 | 165 | 8.0 | 24.1 | 0.00 | 0.00 | 0.00 | 67 | 1005.9 |
| 20260506183004 | 21 | 169 | 11.3 | 27.4 | 0.00 | 0.00 | 0.00 | 60 | 1005.9 |
| 20260506181501 | 21 | 175 | 9.7 | 22.5 | 0.00 | 0.00 | 0.00 | 60 | 1006.2 |
| 20260506180043 | 21 | 208 | 11.3 | 29.0 | 0.00 | 0.00 | 0.00 | 60 | 1006.3 |
| 20260506174541 | 21 | 198 | 11.3 | 30.6 | 0.00 | 0.00 | 0.00 | 62 | 1006.3 |
| 20260506173024 | 21 | 154 | 16.1 | 27.4 | 0.00 | 0.00 | 0.00 | 61 | 1006.5 |
| 20260506171524 | 21 | 167 | 12.9 | 24.1 | 0.00 | 0.00 | 0.00 | 62 | 1006.6 |
| 20260506170002 | 21 | 162 | 14.5 | 20.9 | 0.00 | 0.00 | 0.00 | 63 | 1006.7 |
| 20260506164503 | 21 | 167 | 14.5 | 27.4 | 0.00 | 0.00 | 0.00 | 62 | 1006.9 |
| 20260506163107 | 22 | 173 | 11.3 | 25.7 | 0.00 | 0.00 | 0.00 | 59 | 1007.1 |
| 20260506161544 | 22 | 234 | 11.3 | 27.4 | 0.00 | 0.00 | 0.00 | 58 | 1007.3 |
| 20260506160050 | 21 | 183 | 9.7 | 19.3 | 0.00 | 0.00 | 0.00 | 60 | 1007.6 |
| 20260506154526 | 21 | 238 | 11.3 | 29.0 | 0.00 | 0.00 | 0.00 | 60 | 1008.1 |
| 20260506153025 | 21 | 227 | 9.7 | 30.6 | 0.00 | 0.00 | 0.00 | 60 | 1008.3 |
| 20260506151508 | 21 | 194 | 14.5 | 33.8 | 0.00 | 0.00 | 0.00 | 63 | 1008.3 |
| 20260506150008 | 21 | 223 | 12.9 | 29.0 | 0.00 | 0.00 | 0.00 | 63 | 1008.5 |
| 20260506144552 | 20 | 212 | 12.9 | 27.4 | 0.00 | 0.00 | 0.00 | 64 | 1008.4 |
| 20260506143050 | 20 | 229 | 16.1 | 27.4 | 0.00 | 0.00 | 0.00 | 65 | 1008.2 |
| 20260506141534 | 20 | 165 | 9.7 | 30.6 | 0.00 | 0.00 | 0.00 | 66 | 1008.3 |
| 20260506140032 | 20 | 238 | 9.7 | 30.6 | 0.00 | 0.00 | 0.00 | 68 | 1008.4 |
| 20260506134514 | 19 | 240 | 8.0 | 29.0 | 0.00 | 0.00 | 0.00 | 69 | 1008.7 |
| 20260506133014 | 18 | 227 | 14.5 | 27.4 | 0.00 | 0.00 | 0.00 | 69 | 1008.9 |
| 20260506131557 | 18 | 246 | 14.5 | 27.4 | 0.00 | 0.00 | 0.00 | 70 | 1008.8 |
| 20260506130055 | 18 | 252 | 9.7 | 22.5 | 0.00 | 0.00 | 0.00 | 70 | 1008.9 |
| 20260506124540 | 18 | 222 | 11.3 | 24.1 | 0.00 | 0.00 | 0.00 | 72 | 1008.8 |
| 20260506123042 | 17 | 240 | 9.7 | 19.3 | 0.00 | 0.00 | 0.00 | 73 | 1009.2 |
| 20260506121519 | 17 | 202 | 8.0 | 16.1 | 0.00 | 0.00 | 0.00 | 73 | 1008.9 |
| 20260506120027 | 17 | 205 | 6.4 | 19.3 | 0.00 | 0.00 | 0.00 | 74 | 1009.0 |
| 20260506114600 | 17 | 237 | 6.4 | 24.1 | 0.00 | 0.00 | 0.00 | 75 | 1009.3 |
| 20260506113109 | 17 | 225 | 9.7 | 19.3 | 0.00 | 0.00 | 0.00 | 75 | 1009.4 |
| 20260506111541 | 16 | 181 | 9.7 | 29.0 | 0.00 | 0.00 | 0.00 | 76 | 1009.2 |
| 20260506110040 | 16 | 254 | 4.8 | 22.5 | 0.00 | 0.00 | 0.00 | 76 | 1009.3 |
| 20260506104521 | 16 | 199 | 6.4 | 17.7 | 0.00 | 0.00 | 0.00 | 76 | 1009.2 |
| 20260506103027 | 16 | 182 | 4.8 | 17.7 | 0.00 | 0.00 | 0.00 | 75 | 1009.4 |
| 20260506101502 | 16 | 192 | 8.0 | 20.9 | 0.00 | 0.00 | 0.00 | 75 | 1009.2 |
| 20260506100059 | 16 | 245 | 8.0 | 19.3 | 0.00 | 0.00 | 0.00 | 74 | 1009.1 |
| 20260506094546 | 16 | 206 | 11.3 | 17.7 | 0.00 | 0.00 | 0.00 | 74 | 1009.2 |
| 20260506093045 | 16 | 208 | 8.0 | 24.1 | 0.00 | 0.00 | 0.00 | 73 | 1009.1 |
| 20260506091517 | 16 | 179 | 6.4 | 22.5 | 0.00 | 0.00 | 0.00 | 73 | 1009.1 |
| 20260506090014 | 16 | 228 | 8.0 | 19.3 | 0.00 | 0.00 | 0.00 | 72 | 1009.1 |